Time;durP1;ratioP1;P1;durP2;ratioP2;P2;SDS_P1;SDS_P2;PMS_P1;PMS_P2;Temp;Humidity;BMP_temperature;BMP_pressure;BME280_temperature;BME280_humidity;BME280_pressure;Samples;Min_cycle;Max_cycle;Signal;HPM_P1;HPM_P2
2022/06/17 00:01:28;;;;;;;4.40;4.00;;;20.10;50.20;;;22.71;39.10;102315.81;5115281;28;20210;-58
2022/06/17 00:03:57;;;;;;;6.23;3.60;;;20.10;50.30;;;22.68;39.42;102324.31;5115001;28;20194;-58
2022/06/17 00:06:33;;;;;;;6.40;3.20;;;20.00;50.20;;;22.65;38.78;102322.06;5115089;28;20646;-58
2022/06/17 00:09:01;;;;;;;5.80;3.53;;;20.00;50.30;;;22.63;39.21;102324.13;5113349;28;20247;-59
2022/06/17 00:11:33;;;;;;;3.80;3.23;;;19.90;50.20;;;22.61;39.28;102331.56;5115467;28;20227;-59
2022/06/17 00:14:01;;;;;;;3.60;3.30;;;19.90;50.50;;;22.59;39.46;102333.63;5115145;28;20673;-59
2022/06/17 00:16:33;;;;;;;5.47;3.70;;;19.90;51.30;;;22.58;39.36;102334.66;5115161;28;20191;-59
2022/06/17 00:19:02;;;;;;;4.67;3.23;;;19.90;50.80;;;22.57;39.41;102324.97;5115176;28;20188;-59
2022/06/17 00:21:33;;;;;;;6.03;3.57;;;19.90;50.70;;;22.55;39.58;102318.16;5113678;28;20211;-59
2022/06/17 00:24:12;;;;;;;4.37;3.60;;;19.90;50.80;;;22.52;39.46;102322.09;5112279;28;20279;-59
2022/06/17 00:26:39;;;;;;;3.77;3.07;;;19.80;50.90;;;22.49;39.66;102311.78;5114825;28;20206;-60
2022/06/17 00:29:11;;;;;;;5.07;3.63;;;19.80;51.10;;;22.47;39.75;102311.19;5115029;28;20225;-59
2022/06/17 00:31:39;;;;;;;3.87;3.20;;;19.80;51.20;;;22.42;39.63;102313.69;5114315;28;20212;-59
2022/06/17 00:34:08;;;;;;;3.53;3.23;;;19.70;51.30;;;22.39;40.30;102308.75;5114808;28;20190;-59
2022/06/17 00:36:36;;;;;;;4.77;3.67;;;19.70;52.00;;;22.36;40.18;102327.13;5114868;28;20649;-59
2022/06/17 00:39:11;;;;;;;3.60;3.30;;;19.70;51.50;;;22.33;40.14;102339.09;5114530;27;20187;-59
2022/06/17 00:41:42;;;;;;;5.73;3.63;;;19.60;51.50;;;22.35;39.59;102331.66;5112823;28;20221;-59
2022/06/17 00:44:28;;;;;;;4.60;3.77;;;19.60;50.80;;;22.33;40.08;102330.22;5114435;28;20190;-59
2022/06/17 00:47:03;;;;;;;5.70;3.50;;;19.60;51.20;;;22.35;40.28;102338.88;5113436;28;20248;-59
2022/06/17 00:49:45;;;;;;;6.37;3.47;;;19.60;51.30;;;22.32;39.22;102339.34;5114873;28;20199;-58
2022/06/17 00:52:21;;;;;;;4.07;3.57;;;19.60;50.80;;;22.32;39.69;102340.16;5113754;28;20225;-59
2022/06/17 00:54:56;;;;;;;6.43;3.50;;;19.70;50.60;;;22.29;39.98;102337.06;5114729;28;20668;-60
2022/06/17 00:57:29;;;;;;;6.20;3.43;;;19.60;50.80;;;22.27;39.78;102344.50;5112942;28;20191;-58
2022/06/17 01:00:16;;;;;;;7.07;4.17;;;19.60;50.90;;;22.25;39.20;102336.66;5114805;28;20218;-59
2022/06/17 01:02:48;;;;;;;4.27;3.07;;;19.60;50.30;;;22.30;38.89;102346.78;5114469;28;20207;-59
2022/06/17 01:05:21;;;;;;;6.00;3.50;;;19.60;50.30;;;22.31;39.22;102341.19;5114862;28;20188;-58
2022/06/17 01:07:58;;;;;;;6.27;3.83;;;19.60;50.40;;;22.31;38.95;102338.50;5114470;28;20210;-60
2022/06/17 01:10:26;;;;;;;4.17;3.00;;;19.60;50.30;;;22.29;39.42;102342.44;5118091;28;20687;-58
2022/06/17 01:12:59;;;;;;;4.83;3.73;;;19.60;50.40;;;22.28;39.33;102344.28;5116392;28;20271;-58
2022/06/17 01:15:29;;;;;;;4.10;3.27;;;19.60;50.40;;;22.30;39.53;102346.78;5119000;28;20184;-59
2022/06/17 01:17:57;;;;;;;4.77;3.83;;;19.60;50.70;;;22.33;39.63;102355.22;5118721;28;20287;-59
2022/06/17 01:20:30;;;;;;;3.80;3.47;;;19.60;50.60;;;22.34;39.43;102348.81;5118116;28;20255;-59
2022/06/17 01:23:05;;;;;;;4.70;3.67;;;19.60;50.50;;;22.36;39.43;102354.78;5118681;28;20208;-58
2022/06/17 01:25:36;;;;;;;4.57;3.33;;;19.60;50.50;;;22.38;39.27;102352.72;5118723;27;20192;-59
2022/06/17 01:28:09;;;;;;;5.47;3.60;;;19.60;50.60;;;22.40;39.05;102356.00;5116720;28;20190;-59
2022/06/17 01:30:41;;;;;;;5.33;3.57;;;19.60;50.60;;;22.39;38.96;102353.56;5118023;28;20191;-59
2022/06/17 01:33:17;;;;;;;6.03;3.43;;;19.60;50.40;;;22.37;39.04;102353.75;5077434;28;20276;-59
2022/06/17 01:35:52;;;;;;;4.37;3.07;;;19.60;50.20;;;22.31;39.15;102368.03;5075929;28;20189;-59
2022/06/17 01:38:23;;;;;;;2.80;2.60;;;19.60;50.00;;;22.29;39.08;102359.38;5076823;28;20189;-59
2022/06/17 01:40:53;;;;;;;5.23;3.40;;;19.60;50.20;;;22.29;38.99;102354.00;5076750;28;20228;-59
2022/06/17 01:43:28;;;;;;;4.80;3.63;;;19.60;50.10;;;22.22;38.50;102356.72;5077079;28;20200;-58
2022/06/17 01:46:01;;;;;;;3.53;3.23;;;19.60;49.50;;;22.14;38.65;102356.09;5097668;28;20196;-58
2022/06/17 01:48:36;;;;;;;3.40;3.10;;;19.50;49.50;;;22.09;38.90;102359.41;5097412;28;20192;-59
2022/06/17 01:51:08;;;;;;;4.47;3.60;;;19.50;50.40;;;22.10;39.82;102362.94;5097018;28;20523;-58
2022/06/17 01:53:46;;;;;;;4.17;3.23;;;19.50;51.10;;;22.12;39.68;102359.00;5097529;28;20189;-59
2022/06/17 01:56:18;;;;;;;4.67;3.20;;;19.50;51.20;;;22.14;39.95;102358.78;5097837;28;20546;-59
2022/06/17 01:58:55;;;;;;;4.33;3.27;;;19.50;51.50;;;22.14;40.50;102361.47;5097174;28;20189;-59
2022/06/17 02:01:25;;;;;;;3.50;3.20;;;19.50;51.60;;;22.16;40.49;102362.06;5097325;28;20212;-57
2022/06/17 02:04:00;;;;;;;3.37;2.93;;;19.50;51.50;;;22.14;40.14;102356.94;5096788;28;20188;-59
2022/06/17 02:06:38;;;;;;;5.03;3.27;;;19.50;51.40;;;22.17;39.48;102355.69;5096881;28;20237;-57
2022/06/17 02:09:07;;;;;;;5.17;3.43;;;19.50;51.00;;;22.18;38.91;102351.94;5096410;28;20216;-58
2022/06/17 02:11:34;;;;;;;3.30;3.00;;;19.50;50.50;;;22.18;38.89;102349.28;5095964;28;20209;-58
2022/06/17 02:14:06;;;;;;;4.53;3.47;;;19.40;50.50;;;22.19;38.76;102353.59;5096387;28;20638;-58
2022/06/17 02:16:37;;;;;;;5.47;3.33;;;19.40;50.40;;;22.18;39.17;102357.31;5097705;28;20650;-59
2022/06/17 02:19:05;;;;;;;5.83;3.30;;;19.40;50.40;;;22.15;39.11;102352.41;5096132;28;20205;-57
2022/06/17 02:22:04;;;;;;;4.33;3.10;;;19.30;50.60;;;22.10;38.96;102354.88;5065850;28;20259;-59
2022/06/17 02:24:35;;;;;;;4.00;3.60;;;19.30;50.30;;;22.08;39.62;102359.63;5095999;28;20188;-57
2022/06/17 02:27:07;;;;;;;3.93;3.50;;;19.30;50.90;;;22.07;39.31;102361.50;5096021;28;20193;-60
2022/06/17 02:29:39;;;;;;;5.20;2.97;;;19.30;50.80;;;22.02;39.29;102347.88;5096070;28;20315;-61
2022/06/17 02:32:20;;;;;;;3.23;2.93;;;19.30;50.70;;;21.97;39.39;102347.69;5094964;28;20212;-59
2022/06/17 02:34:55;;;;;;;4.50;3.00;;;19.30;50.50;;;21.92;39.57;102349.34;5075457;28;20200;-59
2022/06/17 02:37:26;;;;;;;5.13;3.90;;;19.30;51.00;;;21.88;39.56;102342.75;5082779;28;20199;-60
2022/06/17 02:39:58;;;;;;;5.30;3.80;;;19.20;50.80;;;21.80;39.79;102354.47;5087782;28;20196;-61
2022/06/17 02:42:31;;;;;;;7.30;3.60;;;19.20;50.80;;;21.72;39.80;102340.50;5087952;28;20355;-60
2022/06/17 02:45:05;;;;;;;4.93;3.60;;;19.10;51.50;;;21.65;40.31;102339.66;5078822;28;20272;-60
2022/06/17 02:47:33;;;;;;;4.33;3.90;;;19.10;51.10;;;21.59;40.01;102334.09;5074676;28;20272;-60
2022/06/17 02:50:00;;;;;;;3.97;3.57;;;19.00;51.50;;;21.53;40.52;102332.28;5092901;28;20219;-59
2022/06/17 02:52:35;;;;;;;4.10;3.70;;;18.90;51.50;;;21.48;40.73;102329.38;5094145;28;20708;-60
2022/06/17 02:55:13;;;;;;;7.97;4.07;;;18.90;51.70;;;21.38;40.97;102323.63;5094565;28;20206;-60
2022/06/17 02:57:40;;;;;;;4.70;4.23;;;18.80;51.80;;;21.29;40.96;102330.22;5095196;28;20188;-61
2022/06/17 03:00:15;;;;;;;6.27;4.80;;;18.80;52.10;;;21.08;41.47;102322.38;5094998;28;20187;-60
2022/06/17 03:02:47;;;;;;;7.00;5.90;;;18.60;52.60;;;20.88;41.79;102321.47;5094603;28;20212;-59
2022/06/17 03:05:22;;;;;;;8.70;4.93;;;18.50;53.00;;;20.70;42.78;102326.59;5108539;28;20212;-59
2022/06/17 03:07:51;;;;;;;5.63;5.13;;;18.40;53.50;;;20.59;43.21;102329.84;5113877;27;20187;-60
2022/06/17 03:10:28;;;;;;;5.03;4.53;;;18.30;54.00;;;20.48;43.28;102335.78;5115135;28;20212;-58
2022/06/17 03:13:04;;;;;;;8.03;5.30;;;18.20;54.40;;;20.33;43.86;102332.41;5115204;28;20496;-61
2022/06/17 03:15:32;;;;;;;7.83;4.83;;;18.00;54.80;;;20.27;43.75;102333.22;5115226;28;20191;-60
2022/06/17 03:17:59;;;;;;;8.50;5.37;;;17.90;55.00;;;20.23;44.13;102333.59;5114758;28;20222;-61
2022/06/17 03:20:36;;;;;;;5.87;5.30;;;17.80;55.40;;;20.20;44.25;102333.16;5112167;28;20188;-61
2022/06/17 03:23:11;;;;;;;9.00;4.80;;;17.80;55.60;;;20.17;44.20;102339.72;5114815;28;20587;-60
2022/06/17 03:25:47;;;;;;;8.17;5.07;;;17.70;55.90;;;20.10;44.76;102340.72;5115034;28;20278;-59
2022/06/17 03:28:22;;;;;;;5.43;4.93;;;17.70;56.10;;;20.08;44.92;102346.28;5115076;28;20198;-57
2022/06/17 03:31:01;;;;;;;5.73;5.20;;;17.60;56.40;;;20.04;44.66;102345.00;5114242;28;20234;-59
2022/06/17 03:33:34;;;;;;;7.50;5.03;;;17.60;56.30;;;20.08;44.78;102348.94;5113553;28;20195;-61
2022/06/17 03:36:11;;;;;;;6.97;4.93;;;17.60;56.30;;;20.06;44.50;102342.94;5113144;28;20272;-60
2022/06/17 03:38:47;;;;;;;6.87;5.37;;;17.60;56.50;;;20.00;44.85;102348.25;5114567;28;20192;-60
2022/06/17 03:41:24;;;;;;;6.07;5.07;;;17.60;56.60;;;19.96;44.69;102345.19;5114161;28;20691;-59
2022/06/17 03:43:59;;;;;;;9.50;6.10;;;17.50;56.40;;;19.91;44.89;102338.75;5114560;28;20270;-59
2022/06/17 03:46:33;;;;;;;6.83;6.13;;;17.50;56.50;;;19.86;44.80;102336.69;5114469;28;20187;-59
2022/06/17 03:49:10;;;;;;;9.20;5.20;;;17.40;56.60;;;19.81;44.91;102341.78;5114105;28;20972;-60
2022/06/17 03:51:41;;;;;;;6.47;5.13;;;17.40;56.60;;;19.79;45.21;102335.81;5111725;28;20406;-61
2022/06/17 03:54:12;;;;;;;6.80;5.97;;;17.40;56.80;;;19.72;45.06;102339.44;5114367;28;20192;-59
2022/06/17 03:56:51;;;;;;;6.43;5.77;;;17.30;56.70;;;19.64;45.35;102337.75;5114360;28;20187;-59
2022/06/17 03:59:24;;;;;;;7.33;6.30;;;17.30;56.90;;;19.60;45.49;102344.50;5114182;28;20187;-58
2022/06/17 04:01:59;;;;;;;7.23;6.00;;;17.20;56.90;;;19.55;45.55;102338.91;5113744;28;20287;-59
2022/06/17 04:04:33;;;;;;;6.13;5.47;;;17.20;57.10;;;19.51;45.59;102338.50;5114082;27;20187;-59
2022/06/17 04:07:01;;;;;;;6.90;6.23;;;17.20;57.40;;;19.51;45.92;102337.66;5112519;28;20248;-60
2022/06/17 04:09:31;;;;;;;6.73;5.80;;;17.20;57.40;;;19.52;45.84;102345.47;5111989;28;20199;-60
2022/06/17 04:12:04;;;;;;;8.33;6.40;;;17.10;57.40;;;19.54;45.54;102337.25;5113433;28;20683;-61
2022/06/17 04:14:45;;;;;;;7.80;5.80;;;17.10;57.30;;;19.51;45.70;102343.00;5114022;28;20188;-58
2022/06/17 04:17:21;;;;;;;8.57;6.47;;;17.10;57.50;;;19.56;45.72;102345.94;5113773;28;20180;-60
2022/06/17 04:19:59;;;;;;;7.87;6.23;;;17.10;57.30;;;19.58;45.67;102338.53;5119282;28;20213;-60
2022/06/17 04:22:35;;;;;;;9.87;6.67;;;17.10;57.30;;;19.62;45.29;102336.28;5112998;28;20218;-60
2022/06/17 04:25:13;;;;;;;8.87;6.13;;;17.20;57.20;;;19.61;45.32;102337.31;5111953;28;20218;-60
2022/06/17 04:27:58;;;;;;;7.30;6.30;;;17.20;57.20;;;19.56;45.83;102335.25;5113516;28;20203;-60
2022/06/17 04:30:31;;;;;;;8.20;7.13;;;17.20;57.30;;;19.52;45.69;102340.13;5115938;28;20202;-62
2022/06/17 04:33:09;;;;;;;8.20;6.87;;;17.20;57.40;;;19.52;45.82;102342.81;5113175;28;20195;-60
2022/06/17 04:35:37;;;;;;;7.20;6.50;;;17.10;57.30;;;19.56;45.71;102340.59;5113631;28;20619;-60
2022/06/17 04:38:04;;;;;;;7.37;6.60;;;17.10;57.30;;;19.58;45.58;102341.22;5113300;28;20195;-61
2022/06/17 04:40:48;;;;;;;8.53;6.90;;;17.20;57.20;;;19.59;45.14;102348.19;5111401;28;20206;-60
2022/06/17 04:43:27;;;;;;;7.03;6.43;;;17.20;57.10;;;19.55;45.31;102344.25;5112776;28;20195;-59
2022/06/17 04:45:59;;;;;;;7.00;6.27;;;17.20;57.70;;;19.64;45.20;102343.09;5112865;28;20213;-59
2022/06/17 04:48:27;;;;;;;7.57;6.70;;;17.20;57.10;;;19.70;45.32;102339.66;5112417;28;20628;-60
2022/06/17 04:50:55;;;;;;;8.17;6.33;;;17.20;57.00;;;19.73;44.99;102341.13;5112374;28;20215;-60
2022/06/17 04:53:23;;;;;;;8.47;6.60;;;17.20;56.80;;;19.78;44.79;102347.50;5113217;28;20180;-60
2022/06/17 04:55:53;;;;;;;8.83;6.13;;;17.30;56.80;;;19.81;45.02;102347.13;5111103;28;20195;-61
2022/06/17 04:58:25;;;;;;;8.87;6.87;;;17.30;56.70;;;19.89;44.45;102346.97;5113410;28;20199;-61
2022/06/17 05:00:56;;;;;;;7.47;6.67;;;17.40;56.60;;;19.90;44.42;102351.28;5112608;28;20208;-61
2022/06/17 05:03:28;;;;;;;8.00;6.43;;;17.40;56.20;;;19.90;44.57;102348.63;5112974;28;20215;-59
2022/06/17 05:05:56;;;;;;;6.10;5.50;;;17.50;56.20;;;20.00;44.14;102354.44;5111858;28;20214;-61
2022/06/17 05:08:30;;;;;;;6.50;5.80;;;17.50;56.60;;;20.05;44.31;102352.00;5112811;28;20300;-60
2022/06/17 05:11:07;;;;;;;7.37;6.13;;;17.60;55.90;;;20.16;44.05;102346.09;5112014;28;20755;-60
2022/06/17 05:13:44;;;;;;;8.27;6.20;;;17.60;55.80;;;20.25;43.86;102352.94;5092700;28;20275;-60
2022/06/17 05:16:12;;;;;;;7.00;6.30;;;17.70;55.60;;;20.33;43.31;102354.63;5092779;28;20302;-61
2022/06/17 05:18:40;;;;;;;6.27;5.60;;;17.80;55.50;;;20.36;43.00;102348.91;5092935;28;20227;-61
2022/06/17 05:21:17;;;;;;;6.63;5.40;;;17.80;55.00;;;20.33;43.08;102354.63;5091030;28;20208;-60
2022/06/17 05:23:46;;;;;;;8.33;5.60;;;17.80;54.80;;;20.38;43.10;102352.19;5092389;28;20200;-61
2022/06/17 05:26:13;;;;;;;6.83;5.00;;;17.90;54.80;;;20.46;42.81;102360.06;5092490;28;20312;-61
2022/06/17 05:28:42;;;;;;;6.97;5.77;;;18.00;54.80;;;20.53;43.17;102355.56;5108068;28;20230;-59
2022/06/17 05:31:15;;;;;;;5.30;4.80;;;18.00;54.80;;;20.66;42.26;102354.75;5110798;28;20211;-60
2022/06/17 05:33:45;;;;;;;7.30;5.07;;;18.10;54.60;;;20.84;42.24;102357.72;5113033;28;20191;-61
2022/06/17 05:36:13;;;;;;;6.53;4.93;;;18.20;54.50;;;20.96;42.15;102355.28;5113008;28;20275;-61
2022/06/17 05:38:42;;;;;;;8.57;4.87;;;18.30;55.10;;;21.11;42.18;102359.44;5113054;28;20276;-59
2022/06/17 05:41:14;;;;;;;6.77;6.07;;;18.30;54.30;;;21.16;41.61;102362.34;5112451;28;20251;-60
2022/06/17 05:43:43;;;;;;;6.57;4.60;;;18.50;54.20;;;21.21;42.13;102357.19;5110241;28;20196;-61
2022/06/17 05:46:10;;;;;;;11.80;5.80;;;18.60;54.00;;;21.26;41.69;102360.09;5111349;28;20192;-61
2022/06/17 05:48:39;;;;;;;8.70;6.07;;;18.70;53.90;;;21.34;41.45;102354.53;5112500;28;20200;-61
2022/06/17 05:51:07;;;;;;;6.97;5.33;;;18.70;53.70;;;21.40;41.77;102353.69;5111936;28;20222;-61
2022/06/17 05:53:34;;;;;;;6.57;5.87;;;18.80;53.60;;;21.37;41.37;102359.47;5112323;28;20584;-61
2022/06/17 05:56:02;;;;;;;7.47;5.00;;;18.90;53.50;;;21.35;41.67;102356.16;5113607;28;20517;-62
2022/06/17 05:58:29;;;;;;;7.03;5.87;;;18.90;53.50;;;21.46;41.83;102352.91;5116373;28;20219;-59
2022/06/17 06:00:58;;;;;;;5.90;5.00;;;18.90;53.50;;;21.58;41.24;102361.13;5113438;28;20215;-67
2022/06/17 06:03:28;;;;;;;9.13;5.40;;;19.00;53.50;;;21.70;41.65;102347.91;5115826;28;20196;-61
2022/06/17 06:05:56;;;;;;;8.20;4.83;;;19.10;53.70;;;21.83;41.27;102347.88;5116048;28;20701;-60
2022/06/17 06:08:24;;;;;;;6.20;5.27;;;19.10;53.50;;;21.89;41.62;102347.09;5116362;28;20267;-59
2022/06/17 06:10:51;;;;;;;6.83;4.30;;;19.20;53.30;;;22.01;41.14;102346.22;5115743;28;20218;-60
2022/06/17 06:13:23;;;;;;;6.77;4.67;;;19.30;54.00;;;22.14;40.99;102334.63;5115459;28;20188;-61
2022/06/17 06:15:55;;;;;;;6.43;4.73;;;19.40;53.50;;;22.19;40.65;102332.97;5114485;28;20192;-60
2022/06/17 06:18:28;;;;;;;4.70;4.27;;;19.50;52.80;;;22.25;40.62;102331.28;5115926;28;20271;-60
2022/06/17 06:20:56;;;;;;;4.73;4.23;;;19.60;52.60;;;22.35;40.29;102331.66;5115304;28;20722;-60
2022/06/17 06:23:23;;;;;;;7.67;4.30;;;19.70;52.90;;;22.51;40.57;102341.09;5114238;28;20200;-60
2022/06/17 06:25:51;;;;;;;4.30;3.73;;;19.80;52.90;;;22.64;40.44;102344.56;5116101;28;20538;-59
2022/06/17 06:28:23;;;;;;;5.23;3.73;;;19.90;53.10;;;22.80;40.20;102349.44;5114176;28;20203;-60
2022/06/17 06:30:53;;;;;;;8.37;4.47;;;20.00;52.90;;;22.85;40.27;102349.63;5114065;28;20224;-60
2022/06/17 06:33:20;;;;;;;5.27;3.97;;;20.10;52.70;;;22.99;40.08;102354.91;5109781;28;20211;-60
2022/06/17 06:35:49;;;;;;;4.80;3.77;;;20.30;52.70;;;23.14;39.95;102358.09;5094540;28;20219;-60
2022/06/17 06:38:17;;;;;;;6.67;4.57;;;20.40;52.50;;;23.26;39.77;102364.44;5095033;28;20218;-61
2022/06/17 06:40:44;;;;;;;7.53;4.37;;;20.50;52.30;;;23.41;39.35;102359.59;5094163;28;20185;-61
2022/06/17 06:43:15;;;;;;;4.23;3.00;;;20.60;52.10;;;23.58;39.23;102361.50;5094000;28;20193;-61
2022/06/17 06:45:46;;;;;;;7.70;4.13;;;20.70;52.00;;;23.74;38.79;102354.75;5094240;28;20654;-60
2022/06/17 06:48:17;;;;;;;6.23;3.40;;;20.90;51.50;;;23.92;38.51;102365.50;5095659;28;20271;-60
2022/06/17 06:50:45;;;;;;;3.93;3.50;;;21.00;51.10;;;24.07;37.86;102366.03;5094214;28;20299;-60
2022/06/17 06:53:14;;;;;;;5.70;3.20;;;21.20;50.20;;;24.36;37.47;102374.38;5094225;28;20626;-60
2022/06/17 06:55:42;;;;;;;3.97;3.57;;;21.30;50.10;;;24.66;37.25;102375.22;5094658;28;20187;-59
2022/06/17 06:58:13;;;;;;;4.03;2.83;;;21.50;49.80;;;24.91;36.53;102373.28;5094024;28;20188;-60
2022/06/17 07:00:45;;;;;;;8.33;4.07;;;21.70;49.60;;;25.11;36.39;102365.69;5094380;28;20188;-59
2022/06/17 07:03:13;;;;;;;7.13;4.37;;;21.90;48.70;;;25.24;35.33;102352.03;5095590;28;20180;-61
2022/06/17 07:05:45;;;;;;;5.43;3.47;;;22.10;47.40;;;25.29;35.13;102362.91;5094261;28;20554;-58
2022/06/17 07:08:18;;;;;;;4.83;3.47;;;22.30;47.50;;;25.42;34.89;102362.72;5093458;28;20271;-61
2022/06/17 07:10:48;;;;;;;5.37;3.37;;;22.40;47.30;;;25.57;34.97;102362.28;5093701;28;20224;-61
2022/06/17 07:13:16;;;;;;;3.87;3.40;;;22.50;47.30;;;25.75;34.81;102364.88;5094320;28;20604;-60
2022/06/17 07:15:46;;;;;;;4.53;3.23;;;22.60;46.80;;;25.94;34.88;102357.44;5094561;28;20191;-60
2022/06/17 07:18:18;;;;;;;5.33;2.80;;;22.70;46.60;;;26.17;33.91;102362.88;5093589;28;20188;-60
2022/06/17 07:20:49;;;;;;;7.40;3.07;;;22.90;46.50;;;26.44;34.24;102363.97;5094496;28;20212;-57
2022/06/17 07:23:22;;;;;;;4.30;3.40;;;23.10;46.40;;;26.60;33.38;102363.19;5093998;28;20287;-62
2022/06/17 07:25:50;;;;;;;4.20;2.80;;;23.30;45.20;;;26.73;32.33;102360.22;5094172;28;20630;-60
2022/06/17 07:28:25;;;;;;;3.17;2.50;;;23.40;44.20;;;26.80;32.09;102352.81;5093944;28;20192;-59
2022/06/17 07:31:04;;;;;;;3.57;2.40;;;23.50;44.10;;;26.92;32.16;102354.63;5093651;28;20724;-60
2022/06/17 07:33:34;;;;;;;2.70;2.50;;;23.60;43.90;;;26.99;32.30;102358.81;5093400;28;20188;-62
2022/06/17 07:36:05;;;;;;;5.27;2.70;;;23.70;43.50;;;27.01;31.72;102355.84;5094674;28;20199;-60
2022/06/17 07:41:57;;;;;;;5.67;3.00;;;23.80;41.10;;;26.53;32.32;102346.28;5080289;28;20309;-61
2022/06/17 07:44:25;;;;;;;4.37;3.33;;;23.80;42.10;;;26.57;32.18;102357.47;5093665;28;20253;-57
2022/06/17 07:46:53;;;;;;;3.07;2.77;;;23.80;42.70;;;26.71;32.08;102348.81;5093501;28;20196;-60
2022/06/17 07:49:20;;;;;;;3.70;3.33;;;23.80;42.80;;;26.90;32.32;102341.34;5093767;28;20188;-60
2022/06/17 07:51:51;;;;;;;5.60;2.87;;;23.80;42.70;;;27.06;31.35;102345.13;5103187;28;20235;-59
2022/06/17 07:54:19;;;;;;;4.43;3.20;;;23.90;42.40;;;27.21;31.61;102337.28;5112560;27;20192;-60
2022/06/17 07:56:54;;;;;;;8.37;6.97;;;24.00;42.00;;;27.36;30.82;102327.50;5103067;28;20795;-60
2022/06/17 07:59:21;;;;;;;7.60;6.27;;;24.10;41.60;;;27.51;31.21;102321.53;5087579;28;20197;-59
2022/06/17 08:01:48;;;;;;;4.70;4.20;;;24.30;42.10;;;27.64;30.35;102321.22;5087723;28;20648;-61
2022/06/17 08:04:16;;;;;;;5.57;4.07;;;24.30;41.30;;;27.80;30.35;102314.09;5091024;28;20628;-60
2022/06/17 08:06:49;;;;;;;5.20;3.10;;;24.50;41.40;;;27.85;30.02;102319.59;5087224;28;20215;-60
2022/06/17 08:09:20;;;;;;;4.27;3.07;;;24.60;40.30;;;27.94;30.45;102316.19;5087655;28;20266;-63
2022/06/17 08:11:49;;;;;;;3.83;3.07;;;24.70;40.90;;;28.10;29.97;102315.34;5086568;28;20243;-60
2022/06/17 08:14:17;;;;;;;2.83;2.63;;;24.90;40.60;;;28.28;30.19;102316.09;5087049;28;20199;-63
2022/06/17 08:16:45;;;;;;;4.03;2.97;;;25.00;40.90;;;28.51;30.12;102310.38;5085876;28;21798;-60
2022/06/17 08:19:13;;;;;;;4.00;3.10;;;25.10;40.70;;;28.93;29.25;102308.66;5086425;28;20303;-60
2022/06/17 08:21:41;;;;;;;6.57;2.83;;;25.30;40.30;;;29.26;28.89;102313.81;5086497;28;20209;-62
2022/06/17 08:24:26;;;;;;;4.60;3.07;;;25.50;39.90;;;29.80;28.39;102310.94;5087868;28;20477;-62
2022/06/17 08:26:53;;;;;;;3.00;2.67;;;25.80;39.80;;;30.41;28.31;102312.00;5087761;28;20555;-63
2022/06/17 08:29:22;;;;;;;3.43;3.03;;;26.10;39.50;;;30.87;26.86;102313.72;5087716;28;20647;-63
2022/06/17 08:32:48;;;;;;;3.87;2.63;;;26.50;38.30;;;31.08;26.30;102309.09;5045231;28;20312;-59
2022/06/17 08:35:20;;;;;;;3.67;3.27;;;26.90;36.90;;;31.10;26.16;102306.94;5087985;28;20193;-61
2022/06/17 08:37:57;;;;;;;4.77;3.60;;;27.10;36.60;;;30.92;26.20;102304.75;5088644;28;20180;-61
2022/06/17 08:41:13;;;;;;;3.47;2.97;;;27.20;34.80;;;30.66;26.27;102304.72;5085902;28;20231;-58
2022/06/17 08:44:11;;;;;;;2.50;2.30;;;27.30;35.50;;;30.59;26.39;102312.34;5085830;28;20302;-61
2022/06/17 08:46:56;;;;;;;7.80;3.30;;;27.30;35.20;;;30.64;26.80;102309.59;5087543;28;20204;-60
2022/06/17 08:50:02;;;;;;;2.33;2.20;;;27.20;35.70;;;30.70;27.17;102311.25;5086803;28;20627;-61
2022/06/17 08:52:54;;;;;;;4.13;3.47;;;27.30;36.00;;;30.79;26.44;102311.53;5080656;28;20250;-58
2022/06/17 08:55:32;;;;;;;4.67;2.97;;;27.30;35.40;;;30.81;26.36;102312.88;5085683;28;20193;-61
2022/06/17 08:58:10;;;;;;;6.77;3.33;;;27.30;34.90;;;30.56;25.48;102307.44;5086839;28;20203;-61
2022/06/17 09:00:52;;;;;;;4.63;3.33;;;27.30;33.80;;;30.16;25.96;102296.44;5085170;28;20192;-64
2022/06/17 09:03:57;;;;;;;4.03;2.67;;;27.10;34.80;;;29.89;26.51;102303.91;5086058;28;20631;-59
2022/06/17 09:06:45;;;;;;;2.90;2.70;;;27.00;34.50;;;29.96;27.37;102297.16;5086125;28;20206;-60
2022/06/17 09:09:44;;;;;;;3.40;3.10;;;27.00;35.30;;;30.08;26.60;102310.53;5084376;28;20740;-62
2022/06/17 09:12:20;;;;;;;3.63;3.23;;;26.90;35.50;;;30.09;26.46;102302.13;5084322;28;20746;-61
2022/06/17 09:15:12;;;;;;;5.57;3.80;;;26.90;35.10;;;29.97;26.74;102306.97;5083150;28;20200;-61
2022/06/17 09:17:54;;;;;;;4.90;2.97;;;26.90;35.10;;;29.90;27.33;102308.28;5083587;28;20211;-60
2022/06/17 09:20:30;;;;;;;4.03;3.57;;;26.90;35.30;;;29.68;27.29;102305.69;5084026;28;20200;-66
2022/06/17 09:23:03;;;;;;;8.97;6.47;;;26.80;35.10;;;29.61;27.45;102315.16;5084238;28;20232;-62
2022/06/17 09:25:40;;;;;;;4.23;3.37;;;26.70;35.70;;;29.71;27.80;102315.22;5083062;28;20211;-63
2022/06/17 09:28:17;;;;;;;4.63;3.70;;;26.70;36.30;;;29.92;27.75;102300.69;5083467;28;20271;-60
2022/06/17 09:30:56;;;;;;;3.60;3.30;;;26.70;36.40;;;30.10;27.35;102313.78;5084240;28;20192;-60
2022/06/17 09:33:45;;;;;;;4.43;3.73;;;26.80;36.50;;;30.68;27.42;102305.28;5050257;28;20204;-60
2022/06/17 09:36:20;;;;;;;4.73;3.50;;;27.00;36.60;;;31.32;26.27;102300.13;5086451;28;20292;-61
2022/06/17 09:38:56;;;;;;;4.03;3.27;;;27.30;36.90;;;31.77;25.91;102295.66;5086283;28;20215;-64
2022/06/17 09:41:32;;;;;;;4.20;3.80;;;27.60;36.20;;;31.79;24.95;102297.00;5087490;28;20216;-60
2022/06/17 09:44:07;;;;;;;4.10;3.53;;;27.70;34.90;;;31.57;25.82;102287.56;5087237;28;20204;-60
2022/06/17 09:46:44;;;;;;;4.77;4.00;;;27.80;34.60;;;31.47;26.19;102291.13;5086041;28;20220;-61
2022/06/17 09:49:20;;;;;;;3.77;3.30;;;28.00;34.50;;;31.27;25.86;102291.13;5084965;28;20949;-59
2022/06/17 09:51:55;;;;;;;5.53;3.07;;;28.00;33.60;;;31.08;25.60;102292.78;5084852;28;20250;-60
2022/06/17 09:54:29;;;;;;;4.10;3.57;;;28.00;33.80;;;30.93;26.50;102290.09;5087916;28;20226;-62
2022/06/17 09:57:08;;;;;;;6.03;2.97;;;27.90;34.00;;;30.83;26.65;102287.31;5087675;28;20643;-59
2022/06/17 09:59:42;;;;;;;3.73;2.90;;;27.80;34.20;;;30.73;26.45;102293.56;5085476;28;20189;-62
2022/06/17 10:02:21;;;;;;;3.40;3.03;;;27.70;34.70;;;30.61;27.01;102277.53;5086386;28;20208;-62
2022/06/17 10:04:51;;;;;;;4.63;3.10;;;27.60;35.00;;;30.52;26.55;102284.59;5087419;28;20527;-61
2022/06/17 10:07:30;;;;;;;2.73;2.53;;;27.50;34.80;;;30.36;26.75;102291.06;5087458;28;20188;-61
2022/06/17 10:10:21;;;;;;;3.27;3.00;;;27.50;34.90;;;30.18;26.92;102286.09;5085954;28;20236;-61
2022/06/17 10:13:10;;;;;;;2.73;2.50;;;27.30;35.00;;;30.06;27.10;102280.09;5086032;28;20216;-62
2022/06/17 10:18:31;;;;;;;6.87;2.93;;;27.30;35.00;;;29.97;27.46;102281.69;5089347;28;20286;-63
2022/06/17 10:18:56;;;;;;;4.60;2.90;;;27.10;35.30;;;29.87;27.64;102276.22;5087547;28;20205;-60
2022/06/17 10:21:51;;;;;;;5.20;3.50;;;27.00;35.80;;;29.70;28.06;102278.25;5086421;28;20227;-62
2022/06/17 10:24:35;;;;;;;7.03;3.63;;;26.90;36.20;;;29.56;28.55;102274.38;5086627;28;20510;-61
2022/06/17 10:27:21;;;;;;;6.70;3.83;;;26.90;36.70;;;29.34;29.02;102272.63;5085465;28;20202;-63
2022/06/17 10:30:16;;;;;;;5.00;4.20;;;26.80;37.30;;;29.30;29.10;102265.28;5088465;28;20211;-62
2022/06/17 10:32:49;;;;;;;3.70;3.40;;;26.70;37.40;;;29.19;29.21;102258.97;5085780;28;20216;-62
2022/06/17 10:35:27;;;;;;;4.80;3.70;;;26.60;37.60;;;29.10;29.38;102255.06;5087018;28;20201;-60
2022/06/17 10:37:57;;;;;;;6.03;3.90;;;26.50;37.70;;;29.01;29.66;102251.22;5086504;28;20188;-62
2022/06/17 10:40:38;;;;;;;4.00;3.60;;;26.40;37.90;;;28.96;29.54;102253.88;5085048;28;20196;-65
2022/06/17 10:43:13;;;;;;;9.03;7.73;;;26.40;38.00;;;29.08;29.40;102257.25;5084828;28;20249;-63
2022/06/17 10:45:40;;;;;;;4.70;3.93;;;26.40;38.30;;;29.21;29.83;102256.00;5086777;28;20210;-62